Time;durP1;ratioP1;P1;durP2;ratioP2;P2;SDS_P1;SDS_P2;PMS_P1;PMS_P2;Temp;Humidity;BMP_temperature;BMP_pressure;BME280_temperature;BME280_humidity;BME280_pressure;Samples;Min_cycle;Max_cycle;Signal;HPM_P1;HPM_P2
2022/12/15 00:40:05;;;;;;;;;;;;;;;3.58;100.00;98933.25;2499026;27;19932;-77
2022/12/15 00:40:17;;;;;;;;;;;;;;;3.57;100.00;98926.38;356498;27;911;-77
2022/12/15 00:40:27;;;;;;;;;;;;;;;3.58;100.00;98928.09;354919;27;1182;-77
2022/12/15 00:40:37;;;;;;;;;;;;;;;3.58;100.00;98935.84;351560;28;1286;-77
2022/12/15 00:40:47;;;;;;;;;;;;;;;3.58;100.00;98932.41;347922;28;1239;-77
2022/12/15 00:40:58;;;;;;;;;;;;;;;3.58;100.00;98927.25;348861;28;1350;-76
2022/12/15 00:41:12;;;;;;;;;;;;;;;3.58;100.00;98927.25;350631;28;1250;-76
2022/12/15 00:41:22;;;;;;;;;;;;;;;3.57;100.00;98926.38;350760;28;891;-76
2022/12/15 00:41:32;;;;;;;;;;;;;;;3.58;100.00;98922.06;348487;28;3234;-76
2022/12/15 00:41:42;;;;;;;;;;;;;;;3.57;100.00;98926.38;347784;28;4852;-76
2022/12/15 00:41:53;;;;;;;;;;;;;;;3.57;100.00;98928.97;350367;28;1686;-76
2022/12/15 00:42:03;;;;;;;;;;;;;;;3.58;100.00;98927.25;349272;28;1668;-76
2022/12/15 00:42:13;;;;;;;;;;;;;;;3.57;100.00;98921.22;349275;28;1346;-77
2022/12/15 00:42:27;;;;;;;;;;;;;;;3.57;100.00;98921.22;347733;28;1319;-77
2022/12/15 00:42:37;;;;;;;;;;;;;;;3.58;100.00;98922.91;347779;28;1417;-77
2022/12/15 00:42:48;;;;;;;;;;;;;;;3.59;100.00;98922.03;346540;28;939;-77
2022/12/15 00:42:58;;;;;;;;;;;;;;;3.59;100.00;98916.00;348013;28;1218;-76
2022/12/15 00:43:10;;;;;;;;;;;;;;;3.60;100.00;98915.97;350554;28;1376;-77
2022/12/15 00:43:20;;;;;;;;;;;;;;;3.61;100.00;98911.66;347698;28;1187;-77
2022/12/15 00:43:31;;;;;;;;;;;;;;;3.61;100.00;98911.66;346464;28;884;-77
2022/12/15 00:43:42;;;;;;;;;;;;;;;3.62;100.00;98914.19;349790;28;1199;-77
2022/12/15 00:43:52;;;;;;;;;;;;;;;3.60;100.00;98908.22;346548;28;1421;-77
2022/12/15 00:44:02;;;;;;;;;;;;;;;3.62;100.00;98910.75;345158;28;1327;-77
2022/12/15 00:44:12;;;;;;;;;;;;;;;3.62;100.00;98913.34;348478;28;1444;-78
2022/12/15 00:44:23;;;;;;;;;;;;;;;3.61;100.00;98912.50;348150;28;859;-77
2022/12/15 00:44:33;;;;;;;;;;;;;;;3.62;100.00;98911.63;349284;28;1247;-77
2022/12/15 00:44:43;;;;;;;;;;;;;;;3.61;100.00;98911.66;347737;28;1322;-77
2022/12/15 00:44:56;;;;;;;;;;;;;;;3.62;100.00;98914.19;345100;28;1674;-77
2022/12/15 00:45:07;;;;;;;;;;;;;;;3.62;100.00;98923.69;345164;28;1130;-77
2022/12/15 00:45:17;;;;;;;;;;;;;;;3.62;100.00;98914.19;345163;28;1182;-77
2022/12/15 00:46:53;;;;;;;;;;;;;;;3.62;100.00;98919.38;346579;28;793;-78
2022/12/15 00:46:55;;;;;;;;;;;;;;;3.58;100.00;98915.16;345194;28;937;-77
2022/12/15 00:47:05;;;;;;;;;;;;;;;3.58;100.00;98920.34;343777;28;1209;-77
2022/12/15 00:47:16;;;;;;;;;;;;;;;3.58;100.00;98920.34;345522;28;1398;-77
2022/12/15 00:47:26;;;;;;;;;;;;;;;3.57;100.00;98921.22;343865;28;1343;-77
2022/12/15 00:47:36;;;;;;;;;;;;;;;3.58;100.00;98919.47;342557;28;1130;-78
2022/12/15 00:47:46;;;;;;;;;;;;;;;3.57;100.00;98916.03;338819;29;1210;-77
2022/12/15 00:47:57;;;;;;;;;;;;;;;3.59;100.00;98918.59;341802;28;1321;-77
2022/12/15 00:48:07;;;;;;;;;;;;;;;3.60;100.00;98928.91;340059;29;1258;-77
2022/12/15 00:48:19;;;;;;;;;;;;;;;3.60;100.00;98925.47;335003;29;1249;-77
2022/12/15 00:48:30;;;;;;;;;;;;;;;3.60;100.00;98926.31;336720;29;1354;-78
2022/12/15 00:48:41;;;;;;;;;;;;;;;3.59;100.00;98928.94;338489;29;1338;-77
2022/12/15 00:48:51;;;;;;;;;;;;;;;3.59;100.00;98923.78;340755;29;1534;-76
2022/12/15 00:49:01;;;;;;;;;;;;;;;3.59;100.00;98923.78;339416;29;1477;-78
2022/12/15 00:50:53;;;;;;;;;;;;;;;3.61;100.00;98943.53;329154;29;4041;-76
2022/12/15 00:51:03;;;;;;;;;;;;;;;3.60;100.00;98941.84;330930;29;3410;-77
2022/12/15 00:51:14;;;;;;;;;;;;;;;3.59;100.00;98934.97;330969;29;1743;-77
2022/12/15 01:20:19;;;;;;;;;;;;;;;3.53;100.00;98891.13;284018;34;3222;-93
2022/12/15 01:20:33;;;;;;;;;;;;;;;3.54;100.00;98894.56;285448;34;1475;-93
2022/12/15 01:20:43;;;;;;;;;;;;;;;3.53;100.00;98896.31;284496;34;2857;-93
2022/12/15 01:20:57;;;;;;;;;;;;;;;3.53;100.00;98898.03;281206;34;2040;-93
2022/12/15 01:21:07;;;;;;;;;;;;;;;3.53;100.00;98898.03;276522;35;3551;-93
2022/12/15 01:21:17;;;;;;;;;;;;;;;3.52;100.00;98897.19;273110;36;1217;-93
2022/12/15 01:21:29;;;;;;;;;;;;;;;3.52;100.00;98901.50;271128;36;4112;-93
2022/12/15 01:21:40;;;;;;;;;;;;;;;3.51;100.00;98889.47;268296;36;5088;-94
2022/12/15 01:21:50;;;;;;;;;;;;;;;3.51;100.00;98890.31;265549;36;4791;-93
2022/12/15 01:22:00;;;;;;;;;;;;;;;3.52;100.00;98897.19;264567;37;1214;-94
2022/12/15 01:22:11;;;;;;;;;;;;;;;3.54;100.00;98890.25;261281;37;4221;-93
2022/12/15 01:22:21;;;;;;;;;;;;;;;3.53;100.00;98891.13;258658;37;4791;-93
2022/12/15 01:22:32;;;;;;;;;;;;;;;3.54;100.00;98895.41;260028;38;882;-93
2022/12/15 01:24:20;;;;;;;;;;;;;;;3.51;100.00;98881.72;2502882;27;19940;-77
2022/12/15 01:24:31;;;;;;;;;;;;;;;3.52;100.00;98880.81;356488;27;882;-77
2022/12/15 01:24:41;;;;;;;;;;;;;;;3.51;100.00;98879.97;352211;28;1299;-75
2022/12/15 01:24:51;;;;;;;;;;;;;;;3.51;100.00;98879.97;349211;28;1242;-76
2022/12/15 01:25:02;;;;;;;;;;;;;;;3.51;100.00;98879.97;347790;28;1322;-76
2022/12/15 01:25:12;;;;;;;;;;;;;;;3.53;100.00;98877.34;349357;28;1324;-76
2022/12/15 01:25:23;;;;;;;;;;;;;;;3.52;100.00;98873.91;349320;28;1283;-76
2022/12/15 01:25:33;;;;;;;;;;;;;;;3.53;100.00;98874.75;348280;28;1342;-77
2022/12/15 01:25:43;;;;;;;;;;;;;;;3.53;100.00;98867.00;349433;28;1192;-77
2022/12/15 01:25:54;;;;;;;;;;;;;;;3.52;100.00;98867.91;349734;28;1290;-77
2022/12/15 01:26:05;;;;;;;;;;;;;;;3.50;100.00;98862.75;349292;28;872;-75
2022/12/15 01:26:15;;;;;;;;;;;;;;;3.50;100.00;98862.75;348765;28;1334;-76
2022/12/15 01:26:25;;;;;;;;;;;;;;;3.49;100.00;98861.06;350663;28;1394;-75
2022/12/15 01:26:36;;;;;;;;;;;;;;;3.50;100.00;98854.16;348014;28;1223;-75
2022/12/15 01:26:46;;;;;;;;;;;;;;;3.50;100.00;98856.72;348802;28;864;-75
2022/12/15 01:26:56;;;;;;;;;;;;;;;3.50;100.00;98862.75;352100;28;1432;-76
2022/12/15 01:27:06;;;;;;;;;;;;;;;3.50;100.00;98865.34;347929;28;5152;-76
2022/12/15 01:27:17;;;;;;;;;;;;;;;3.51;100.00;98872.22;351405;28;3342;-76
2022/12/15 01:27:27;;;;;;;;;;;;;;;3.51;100.00;98867.03;349224;28;1413;-76
2022/12/15 01:27:37;;;;;;;;;;;;;;;3.50;100.00;98873.09;349384;28;2010;-76
2022/12/15 01:27:48;;;;;;;;;;;;;;;3.50;100.00;98873.09;349404;28;5647;-77
2022/12/15 01:27:58;;;;;;;;;;;;;;;3.50;100.00;98878.28;349338;28;1195;-77
2022/12/15 01:28:08;;;;;;;;;;;;;;;3.51;100.00;98879.97;348115;28;1196;-77
2022/12/15 01:28:19;;;;;;;;;;;;;;;3.51;100.00;98879.97;348062;28;1417;-76
2022/12/15 01:28:29;;;;;;;;;;;;;;;3.52;100.00;98881.69;347614;28;1960;-77
2022/12/15 01:28:39;;;;;;;;;;;;;;;3.51;100.00;98885.16;349152;28;895;-77
2022/12/15 01:28:49;;;;;;;;;;;;;;;3.51;100.00;98890.31;346157;28;1651;-77
2022/12/15 01:29:00;;;;;;;;;;;;;;;3.51;100.00;98895.50;348050;28;1373;-77
2022/12/15 01:29:10;;;;;;;;;;;;;;;3.51;100.00;98900.66;345393;28;1303;-77
2022/12/15 01:29:20;;;;;;;;;;;;;;;3.51;100.00;98889.47;345187;28;1310;-77
2022/12/15 01:29:33;;;;;;;;;;;;;;;3.50;100.00;98904.13;345814;28;1277;-77
2022/12/15 01:29:44;;;;;;;;;;;;;;;3.51;100.00;98898.09;346826;28;1225;-78
2022/12/15 01:29:54;;;;;;;;;;;;;;;3.50;100.00;98906.72;348070;28;1326;-76
2022/12/15 01:30:04;;;;;;;;;;;;;;;3.50;100.00;98898.13;349512;28;812;-76
2022/12/15 01:30:16;;;;;;;;;;;;;;;3.49;100.00;98902.44;347076;28;1189;-76
2022/12/15 01:30:26;;;;;;;;;;;;;;;3.49;100.00;98906.75;347013;28;1407;-76
2022/12/15 01:30:36;;;;;;;;;;;;;;;3.48;100.00;98911.09;348108;28;1207;-76
2022/12/15 01:30:46;;;;;;;;;;;;;;;3.49;100.00;98899.84;347199;28;1204;-76
2022/12/15 01:30:57;;;;;;;;;;;;;;;3.49;100.00;98902.44;348702;28;898;-77
2022/12/15 01:31:10;;;;;;;;;;;;;;;3.50;100.00;98906.72;348174;28;1003;-77
2022/12/15 01:31:20;;;;;;;;;;;;;;;3.50;100.00;98904.13;348117;28;1244;-77
2022/12/15 01:31:30;;;;;;;;;;;;;;;3.49;100.00;98905.03;346893;28;1382;-77
2022/12/15 01:31:42;;;;;;;;;;;;;;;3.49;100.00;98905.03;346771;28;1291;-77
2022/12/15 01:31:52;;;;;;;;;;;;;;;3.50;100.00;98904.13;343855;28;1435;-76
2022/12/15 01:32:02;;;;;;;;;;;;;;;3.50;100.00;98909.31;342252;28;1289;-76
2022/12/15 01:32:12;;;;;;;;;;;;;;;3.50;100.00;98906.72;343646;28;1295;-77
2022/12/15 01:32:23;;;;;;;;;;;;;;;3.51;100.00;98912.75;345286;28;906;-76
2022/12/15 01:32:33;;;;;;;;;;;;;;;3.52;100.00;98914.44;344975;28;1555;-76
2022/12/15 01:32:43;;;;;;;;;;;;;;;3.51;100.00;98908.44;343560;28;1677;-76
2022/12/15 01:32:54;;;;;;;;;;;;;;;3.51;100.00;98910.16;340000;29;1194;-76
2022/12/15 01:33:04;;;;;;;;;;;;;;;3.48;100.00;98911.09;340986;29;1907;-76
2022/12/15 01:33:14;;;;;;;;;;;;;;;3.49;100.00;98911.94;341769;28;1342;-76
2022/12/15 01:33:24;;;;;;;;;;;;;;;3.48;100.00;98918.84;342656;28;1338;-76
2022/12/15 01:33:35;;;;;;;;;;;;;;;3.48;100.00;98912.81;342789;28;1198;-77
2022/12/15 01:33:45;;;;;;;;;;;;;;;3.48;100.00;98916.25;342047;28;1301;-76
2022/12/15 01:33:55;;;;;;;;;;;;;;;3.48;100.00;98913.66;342532;28;1027;-76
2022/12/15 01:34:05;;;;;;;;;;;;;;;3.48;100.00;98911.09;342046;28;1341;-77
2022/12/15 01:34:18;;;;;;;;;;;;;;;3.49;100.00;98911.94;342850;28;1303;-76
2022/12/15 01:34:29;;;;;;;;;;;;;;;3.47;100.00;98906.81;344243;28;1299;-76
2022/12/15 01:34:39;;;;;;;;;;;;;;;3.48;100.00;98905.91;340015;29;1258;-76
2022/12/15 01:34:49;;;;;;;;;;;;;;;3.49;100.00;98905.03;336132;29;1313;-76
2022/12/15 01:35:00;;;;;;;;;;;;;;;3.48;100.00;98905.91;335003;29;1380;-76
2022/12/15 01:35:10;;;;;;;;;;;;;;;3.49;100.00;98902.44;332042;29;1184;-76
2022/12/15 01:35:20;;;;;;;;;;;;;;;3.49;100.00;98902.44;329151;30;1202;-77
2022/12/15 01:35:31;;;;;;;;;;;;;;;3.49;100.00;98899.84;326705;30;1300;-77
2022/12/15 01:35:41;;;;;;;;;;;;;;;3.48;100.00;98895.56;327551;30;1203;-77
2022/12/15 01:35:55;;;;;;;;;;;;;;;3.48;100.00;98892.97;329812;30;1218;-77
2022/12/15 01:36:06;;;;;;;;;;;;;;;3.48;100.00;98895.56;328278;30;1419;-77
2022/12/15 01:36:16;;;;;;;;;;;;;;;3.48;100.00;98895.56;326184;30;3996;-77
2022/12/15 01:36:26;;;;;;;;;;;;;;;3.48;100.00;98898.16;324946;30;3213;-77
2022/12/15 01:36:37;;;;;;;;;;;;;;;3.47;100.00;98899.03;324932;30;1440;-76
2022/12/15 01:36:47;;;;;;;;;;;;;;;3.48;100.00;98895.56;325307;30;1902;-76
2022/12/15 01:36:57;;;;;;;;;;;;;;;3.48;100.00;98892.13;323100;30;3296;-77
2022/12/15 01:37:07;;;;;;;;;;;;;;;3.48;100.00;98899.88;321485;30;1309;-77
2022/12/15 01:37:18;;;;;;;;;;;;;;;3.48;100.00;98898.16;321884;30;1980;-77
2022/12/15 01:37:28;;;;;;;;;;;;;;;3.48;100.00;98898.16;321663;30;1880;-77
2022/12/15 01:37:38;;;;;;;;;;;;;;;3.48;100.00;98899.88;320456;30;1202;-75
2022/12/15 01:37:48;;;;;;;;;;;;;;;3.48;100.00;98898.16;321505;30;1483;-75
2022/12/15 01:37:59;;;;;;;;;;;;;;;3.47;100.00;98899.03;319838;30;1321;-75
2022/12/15 01:38:09;;;;;;;;;;;;;;;3.47;100.00;98896.44;318996;30;1228;-77
2022/12/15 01:38:20;;;;;;;;;;;;;;;3.48;100.00;98900.75;316099;31;1228;-77
2022/12/15 01:38:30;;;;;;;;;;;;;;;3.49;100.00;98902.44;317189;30;1868;-76
2022/12/15 01:38:41;;;;;;;;;;;;;;;3.50;100.00;98901.56;316927;31;2203;-77
2022/12/15 01:38:51;;;;;;;;;;;;;;;3.51;100.00;98894.66;312578;31;1579;-76
2022/12/15 01:39:02;;;;;;;;;;;;;;;3.51;100.00;98900.66;310807;31;2412;-77
2022/12/15 01:39:12;;;;;;;;;;;;;;;3.51;100.00;98900.66;308450;31;2780;-76
2022/12/15 01:39:22;;;;;;;;;;;;;;;3.51;100.00;98898.09;310975;31;1340;-77
2022/12/15 01:40:49;;;;;;;;;;;;;;;3.50;100.00;98904.13;300573;32;3076;-77
2022/12/15 01:41:00;;;;;;;;;;;;;;;3.51;100.00;98905.00;297871;32;3579;-76
2022/12/15 01:41:11;;;;;;;;;;;;;;;3.52;100.00;98906.69;294925;33;3302;-76
2022/12/15 01:41:21;;;;;;;;;;;;;;;3.50;100.00;98906.72;293581;33;1359;-76
2022/12/15 01:41:31;;;;;;;;;;;;;;;3.50;100.00;98904.13;291746;33;4327;-76
2022/12/15 01:41:41;;;;;;;;;;;;;;;3.49;100.00;98893.81;289524;33;4480;-76
2022/12/15 01:41:52;;;;;;;;;;;;;;;3.48;100.00;98903.31;287905;34;1251;-76
2022/12/15 01:42:02;;;;;;;;;;;;;;;3.49;100.00;98911.94;290841;33;2870;-76
2022/12/15 01:42:12;;;;;;;;;;;;;;;3.49;100.00;98902.44;289228;34;2262;-76
2022/12/15 01:42:22;;;;;;;;;;;;;;;3.49;100.00;98905.03;285929;34;1371;-76
2022/12/15 01:42:33;;;;;;;;;;;;;;;3.47;100.00;98904.22;287095;34;2707;-76
2022/12/15 01:42:43;;;;;;;;;;;;;;;3.47;100.00;98909.38;290067;33;3808;-75
2022/12/15 01:42:53;;;;;;;;;;;;;;;3.47;100.00;98900.78;291723;34;1383;-77
2022/12/15 01:43:08;;;;;;;;;;;;;;;3.46;100.00;98902.53;285076;34;4955;-77
2022/12/15 01:43:19;;;;;;;;;;;;;;;3.47;100.00;98901.63;285054;34;5656;-77
2022/12/15 01:43:31;;;;;;;;;;;;;;;3.46;100.00;98904.28;282437;34;5836;-77
2022/12/15 01:43:41;;;;;;;;;;;;;;;3.45;100.00;98905.16;279354;35;6413;-76
2022/12/15 01:43:51;;;;;;;;;;;;;;;3.45;100.00;98906.00;278790;35;1579;-76
2022/12/15 01:45:40;;;;;;;;;;;;;;;3.37;100.00;98894.16;2457465;27;19930;-76
2022/12/15 01:45:51;;;;;;;;;;;;;;;3.36;100.00;98903.63;346627;28;1306;-76
2022/12/15 01:46:02;;;;;;;;;;;;;;;3.37;100.00;98896.72;347806;28;1881;-76
2022/12/15 01:46:14;;;;;;;;;;;;;;;3.37;100.00;98895.00;345595;28;1231;-77
2022/12/15 01:46:24;;;;;;;;;;;;;;;3.39;100.00;98900.13;346906;28;813;-77
2022/12/15 01:46:34;;;;;;;;;;;;;;;3.39;100.00;98890.63;343925;28;1305;-77
2022/12/15 01:46:45;;;;;;;;;;;;;;;3.40;100.00;98894.94;345342;28;1351;-77
2022/12/15 01:46:55;;;;;;;;;;;;;;;3.41;100.00;98894.03;345241;28;1269;-77
2022/12/15 01:47:07;;;;;;;;;;;;;;;3.41;100.00;98893.19;344108;28;1397;-75
2022/12/15 01:47:17;;;;;;;;;;;;;;;3.41;100.00;98906.97;346234;28;1215;-76
2022/12/15 01:47:27;;;;;;;;;;;;;;;3.40;100.00;98902.69;346818;28;1398;-76
2022/12/15 01:47:37;;;;;;;;;;;;;;;3.40;100.00;98897.50;348109;28;1184;-76
2022/12/15 01:47:51;;;;;;;;;;;;;;;3.42;100.00;98897.47;346798;28;1275;-76
2022/12/15 01:48:03;;;;;;;;;;;;;;;3.41;100.00;98899.22;346750;28;1374;-76
2022/12/15 01:48:18;;;;;;;;;;;;;;;3.42;100.00;98900.06;345537;28;1252;-76
2022/12/15 01:48:37;;;;;;;;;;;;;;;3.41;100.00;98899.22;349573;28;1137;-76
2022/12/15 01:48:56;;;;;;;;;;;;;;;3.41;100.00;98903.53;349036;28;1558;-76
2022/12/15 01:49:16;;;;;;;;;;;;;;;3.41;100.00;98906.97;344962;28;1482;-76
2022/12/15 01:49:27;;;;;;;;;;;;;;;3.40;100.00;98905.28;341145;28;1325;-77
2022/12/15 01:49:37;;;;;;;;;;;;;;;3.40;100.00;98909.59;339844;29;897;-77
2022/12/15 01:49:47;;;;;;;;;;;;;;;3.40;100.00;98904.41;341124;28;1211;-77
2022/12/15 01:49:57;;;;;;;;;;;;;;;3.39;100.00;98908.75;341123;28;1343;-77
2022/12/15 01:50:12;;;;;;;;;;;;;;;3.40;100.00;98902.69;341360;29;1306;-76
2022/12/15 01:50:22;;;;;;;;;;;;;;;3.38;100.00;98909.63;338472;29;1488;-76
2022/12/15 01:50:34;;;;;;;;;;;;;;;3.36;100.00;98913.97;340084;29;1355;-76
2022/12/15 01:50:46;;;;;;;;;;;;;;;3.35;100.00;98912.28;341472;29;1250;-76
2022/12/15 01:51:01;;;;;;;;;;;;;;;3.37;100.00;98912.25;340076;29;1386;-76
2022/12/15 01:51:17;;;;;;;;;;;;;;;3.36;100.00;98911.41;338795;29;1300;-76
2022/12/15 01:51:29;;;;;;;;;;;;;;;3.38;100.00;98909.63;341942;28;1316;-76
2022/12/15 01:51:40;;;;;;;;;;;;;;;3.38;100.00;98914.81;342798;28;1366;-76
2022/12/15 01:51:51;;;;;;;;;;;;;;;3.38;100.00;98913.94;342910;28;934;-76
2022/12/15 01:52:02;;;;;;;;;;;;;;;3.38;100.00;98914.81;340734;29;1032;-76
2022/12/15 01:52:13;;;;;;;;;;;;;;;3.37;100.00;98910.50;337623;29;1217;-76
2022/12/15 01:52:23;;;;;;;;;;;;;;;3.38;100.00;98908.78;337579;29;1404;-76
2022/12/15 01:52:34;;;;;;;;;;;;;;;3.38;100.00;98916.53;336888;29;883;-76
2022/12/15 01:52:44;;;;;;;;;;;;;;;3.37;100.00;98913.09;333379;29;1202;-76
2022/12/15 01:52:54;;;;;;;;;;;;;;;3.35;100.00;98909.69;335059;29;1298;-76
2022/12/15 01:53:04;;;;;;;;;;;;;;;3.34;100.00;98913.16;334708;29;1088;-76
2022/12/15 01:53:15;;;;;;;;;;;;;;;3.35;100.00;98907.13;335546;29;1074;-76
2022/12/15 01:53:25;;;;;;;;;;;;;;;3.33;100.00;98907.16;336138;29;1270;-76
2022/12/15 01:53:40;;;;;;;;;;;;;;;3.31;100.00;98910.66;338961;29;1178;-76
2022/12/15 01:53:52;;;;;;;;;;;;;;;3.31;100.00;98910.66;337342;29;1438;-76
2022/12/15 01:54:03;;;;;;;;;;;;;;;3.29;100.00;98905.50;337206;29;1483;-76
2022/12/15 01:54:14;;;;;;;;;;;;;;;3.29;100.00;98902.06;337973;29;1534;-76
2022/12/15 01:54:28;;;;;;;;;;;;;;;3.26;100.00;98897.81;338743;29;1315;-76
2022/12/15 01:54:43;;;;;;;;;;;;;;;3.26;100.00;98904.72;334644;29;5331;-76
2022/12/15 01:54:54;;;;;;;;;;;;;;;3.27;100.00;98896.94;335276;29;3120;-76
2022/12/15 01:55:05;;;;;;;;;;;;;;;3.28;100.00;98900.38;334334;29;1860;-76
2022/12/15 01:55:15;;;;;;;;;;;;;;;3.26;100.00;98890.06;334370;29;3175;-76
2022/12/15 01:55:26;;;;;;;;;;;;;;;3.28;100.00;98892.63;334647;29;1206;-76
2022/12/15 01:55:36;;;;;;;;;;;;;;;3.29;100.00;98889.16;331174;29;1262;-77
2022/12/15 01:55:46;;;;;;;;;;;;;;;3.30;100.00;98885.69;331423;29;1167;-76
2022/12/15 01:55:57;;;;;;;;;;;;;;;3.30;100.00;98883.94;331221;29;1819;-76
2022/12/15 01:56:08;;;;;;;;;;;;;;;3.31;100.00;98887.38;332385;29;1261;-77
2022/12/15 01:56:18;;;;;;;;;;;;;;;3.30;100.00;98889.13;332682;29;1499;-76
2022/12/15 01:56:29;;;;;;;;;;;;;;;3.31;100.00;98882.22;332924;29;1566;-77
2022/12/15 01:56:41;;;;;;;;;;;;;;;3.32;100.00;98889.06;332489;29;835;-77
2022/12/15 01:56:54;;;;;;;;;;;;;;;3.31;100.00;98896.00;331364;29;1397;-77
2022/12/15 01:57:14;;;;;;;;;;;;;;;3.32;100.00;98889.06;331215;29;1331;-77
2022/12/15 01:57:26;;;;;;;;;;;;;;;3.35;100.00;98894.19;328656;30;940;-77
2022/12/15 01:57:36;;;;;;;;;;;;;;;3.35;100.00;98901.94;324987;30;1137;-77
2022/12/15 01:57:46;;;;;;;;;;;;;;;3.35;100.00;98891.59;321371;30;1483;-77
2022/12/15 01:57:58;;;;;;;;;;;;;;;3.35;100.00;98896.78;319328;30;1992;-77
2022/12/15 01:58:09;;;;;;;;;;;;;;;3.34;100.00;98902.81;314575;31;1350;-76
2022/12/15 01:58:19;;;;;;;;;;;;;;;3.34;100.00;98902.81;319837;30;2291;-76
2022/12/15 01:58:29;;;;;;;;;;;;;;;3.33;100.00;98909.72;321392;30;1797;-76
2022/12/15 01:58:40;;;;;;;;;;;;;;;3.32;100.00;98912.34;323705;30;904;-76
2022/12/15 01:58:50;;;;;;;;;;;;;;;3.33;100.00;98911.47;321573;30;2048;-77
2022/12/15 01:59:02;;;;;;;;;;;;;;;3.32;100.00;98915.78;322187;30;1653;-77
2022/12/15 01:59:15;;;;;;;;;;;;;;;3.32;100.00;98918.38;321847;30;1202;-77
2022/12/15 01:59:37;;;;;;;;;;;;;;;3.33;100.00;98917.50;318801;31;1356;-76
2022/12/15 01:59:49;;;;;;;;;;;;;;;3.32;100.00;98910.63;315768;31;1445;-76
2022/12/15 02:00:00;;;;;;;;;;;;;;;3.34;100.00;98913.16;313587;31;2128;-76
2022/12/15 02:00:11;;;;;;;;;;;;;;;3.33;100.00;98911.47;314883;31;2576;-76
2022/12/15 02:00:21;;;;;;;;;;;;;;;3.31;100.00;98908.91;310954;31;888;-76
2022/12/15 02:00:31;;;;;;;;;;;;;;;3.29;100.00;98912.41;309996;31;3022;-76
2022/12/15 02:00:42;;;;;;;;;;;;;;;3.28;100.00;98913.31;305521;32;2592;-76
2022/12/15 02:00:52;;;;;;;;;;;;;;;3.28;100.00;98918.47;304562;32;876;-76
2022/12/15 02:01:02;;;;;;;;;;;;;;;3.27;100.00;98916.78;303381;32;2770;-76
2022/12/15 02:01:12;;;;;;;;;;;;;;;3.27;100.00;98917.63;303850;32;2280;-76
2022/12/15 02:01:23;;;;;;;;;;;;;;;3.26;100.00;98921.09;302358;32;1371;-76
2022/12/15 02:01:33;;;;;;;;;;;;;;;3.26;100.00;98922.84;302582;32;1875;-77
2022/12/15 02:01:43;;;;;;;;;;;;;;;3.27;100.00;98921.94;301444;32;2090;-77
2022/12/15 02:01:54;;;;;;;;;;;;;;;3.25;100.00;98923.72;303495;32;1326;-77
2022/12/15 02:02:04;;;;;;;;;;;;;;;3.25;100.00;98924.56;300669;32;2541;-77
2022/12/15 02:02:14;;;;;;;;;;;;;;;3.26;100.00;98920.25;298395;32;3974;-77
2022/12/15 02:02:25;;;;;;;;;;;;;;;3.26;100.00;98922.84;296316;33;772;-77
2022/12/15 02:02:35;;;;;;;;;;;;;;;3.26;100.00;98931.44;292425;33;3558;-77
2022/12/15 02:02:45;;;;;;;;;;;;;;;3.25;100.00;98928.88;290639;33;4357;-77
2022/12/15 02:02:56;;;;;;;;;;;;;;;3.25;100.00;98934.91;291115;33;3931;-77
2022/12/15 02:03:06;;;;;;;;;;;;;;;3.26;100.00;98930.59;291442;34;1334;-76
2022/12/15 02:03:16;;;;;;;;;;;;;;;3.25;100.00;98924.56;290282;33;4483;-76
2022/12/15 02:03:27;;;;;;;;;;;;;;;3.24;100.00;98928.03;288764;33;3351;-76
2022/12/15 02:03:37;;;;;;;;;;;;;;;3.24;100.00;98927.19;293326;33;1221;-77
2022/12/15 02:03:47;;;;;;;;;;;;;;;3.23;100.00;98931.50;288532;33;4015;-77
2022/12/15 02:03:58;;;;;;;;;;;;;;;3.24;100.00;98928.03;284411;34;4172;-77
2022/12/15 02:04:08;;;;;;;;;;;;;;;3.24;100.00;98930.63;283381;34;2957;-77
2022/12/15 02:04:18;;;;;;;;;;;;;;;3.24;100.00;98925.44;281436;34;4923;-75
2022/12/15 02:04:28;;;;;;;;;;;;;;;3.24;100.00;98933.22;280151;34;6003;-76
2022/12/15 02:04:39;;;;;;;;;;;;;;;3.28;100.00;98928.81;283291;34;878;-76
2022/12/15 02:06:51;;;;;;;;;;;;;;;3.32;100.00;98938.22;2500349;27;20248;-76
2022/12/15 02:07:05;;;;;;;;;;;;;;;3.32;100.00;98935.63;355255;27;1229;-76
2022/12/15 02:07:15;;;;;;;;;;;;;;;3.30;100.00;98940.81;353330;28;1369;-76
2022/12/15 02:07:26;;;;;;;;;;;;;;;3.30;100.00;98932.22;351312;28;1019;-76
2022/12/15 02:07:37;;;;;;;;;;;;;;;3.28;100.00;98934.84;349385;28;1330;-76
2022/12/15 02:07:47;;;;;;;;;;;;;;;3.28;100.00;98932.25;349520;28;1402;-77
2022/12/15 02:07:58;;;;;;;;;;;;;;;3.28;100.00;98934.00;349632;28;1229;-77
2022/12/15 02:08:09;;;;;;;;;;;;;;;3.28;100.00;98934.00;349648;28;1368;-76
2022/12/15 02:08:19;;;;;;;;;;;;;;;3.28;100.00;98936.56;349705;28;1191;-76
2022/12/15 02:08:29;;;;;;;;;;;;;;;3.29;100.00;98938.28;349522;28;1299;-76
2022/12/15 02:08:39;;;;;;;;;;;;;;;3.27;100.00;98924.53;348206;28;1198;-76
2022/12/15 02:08:50;;;;;;;;;;;;;;;3.27;100.00;98927.13;349974;28;1641;-76
2022/12/15 02:09:00;;;;;;;;;;;;;;;3.26;100.00;98926.25;350749;28;864;-76
2022/12/15 02:09:11;;;;;;;;;;;;;;;3.27;100.00;98924.53;352362;28;1190;-77
2022/12/15 02:09:21;;;;;;;;;;;;;;;3.28;100.00;98921.06;349680;28;1366;-76
2022/12/15 02:09:32;;;;;;;;;;;;;;;3.28;100.00;98921.91;348100;28;1283;-77
2022/12/15 02:09:42;;;;;;;;;;;;;;;3.28;100.00;98914.16;349509;28;1338;-76
2022/12/15 02:09:53;;;;;;;;;;;;;;;3.29;100.00;98920.19;350177;28;797;-76
2022/12/15 02:10:06;;;;;;;;;;;;;;;3.28;100.00;98919.31;350602;28;1461;-76
2022/12/15 02:10:16;;;;;;;;;;;;;;;3.29;100.00;98923.63;352114;28;884;-76
2022/12/15 02:10:27;;;;;;;;;;;;;;;3.30;100.00;98927.06;350399;28;1215;-76
2022/12/15 02:10:47;;;;;;;;;;;;;;;3.27;100.00;98925.38;346572;28;1289;-76
2022/12/15 02:11:17;;;;;;;;;;;;;;;3.28;100.00;98923.66;346648;28;1216;-77
2022/12/15 02:11:27;;;;;;;;;;;;;;;3.27;100.00;98934.88;343927;28;1369;-77
2022/12/15 02:11:43;;;;;;;;;;;;;;;3.25;100.00;98939.22;345371;28;1194;-77
2022/12/15 02:12:16;;;;;;;;;;;;;;;3.28;100.00;98949.50;345586;28;1432;-77
2022/12/15 02:12:56;;;;;;;;;;;;;;;3.27;100.00;98960.72;346427;28;1305;-77
2022/12/15 02:13:26;;;;;;;;;;;;;;;3.28;100.00;98968.44;337344;29;2978;-77
2022/12/15 02:14:03;;;;;;;;;;;;;;;3.28;100.00;98970.19;335184;29;3265;-77
2022/12/15 02:14:24;;;;;;;;;;;;;;;3.27;100.00;98965.91;336915;29;1246;-76
2022/12/15 02:14:53;;;;;;;;;;;;;;;3.27;100.00;98968.50;341290;29;1340;-76
2022/12/15 02:15:09;;;;;;;;;;;;;;;3.22;100.00;98965.16;340699;29;1571;-76
2022/12/15 02:15:26;;;;;;;;;;;;;;;3.23;100.00;98959.09;333718;29;949;-76
2022/12/15 02:15:47;;;;;;;;;;;;;;;3.22;100.00;98955.66;333240;29;1907;-76
2022/12/15 02:16:12;;;;;;;;;;;;;;;3.24;100.00;98958.22;331554;29;1236;-76
2022/12/15 02:16:35;;;;;;;;;;;;;;;3.27;100.00;98952.97;333446;29;1285;-76
2022/12/15 02:16:48;;;;;;;;;;;;;;;3.25;100.00;98955.59;332647;29;1339;-75
2022/12/15 02:17:17;;;;;;;;;;;;;;;3.26;100.00;98951.28;331412;29;2031;-75
2022/12/15 02:17:46;;;;;;;;;;;;;;;3.26;100.00;98952.13;329932;29;1235;-76
2022/12/15 02:17:57;;;;;;;;;;;;;;;3.27;100.00;98947.81;327363;30;1371;-75
2022/12/15 02:18:27;;;;;;;;;;;;;;;3.27;100.00;98952.97;326127;30;1280;-75
2022/12/15 02:18:53;;;;;;;;;;;;;;;3.26;100.00;98946.09;322465;30;1232;-76
2022/12/15 02:19:16;;;;;;;;;;;;;;;3.25;100.00;98934.91;320902;30;2101;-75
2022/12/15 02:19:26;;;;;;;;;;;;;;;3.26;100.00;98936.59;320132;30;2127;-75
2022/12/15 02:19:55;;;;;;;;;;;;;;;3.27;100.00;98937.47;324767;30;1146;-76
2022/12/15 02:20:25;;;;;;;;;;;;;;;3.26;100.00;98940.94;322810;30;1362;-76
2022/12/15 02:20:38;;;;;;;;;;;;;;;3.24;100.00;98945.28;320445;30;1249;-76
2022/12/15 02:21:17;;;;;;;;;;;;;;;3.26;100.00;98951.28;319911;30;1863;-76
2022/12/15 02:21:29;;;;;;;;;;;;;;;3.21;100.00;98953.97;319586;30;3003;-77
2022/12/15 02:21:45;;;;;;;;;;;;;;;3.21;100.00;98958.28;316758;31;1420;-77
2022/12/15 02:22:06;;;;;;;;;;;;;;;3.19;100.00;98957.47;307328;31;3289;-76
2022/12/15 02:22:23;;;;;;;;;;;;;;;3.19;100.00;98962.63;302045;32;3913;-75
2022/12/15 02:22:36;;;;;;;;;;;;;;;3.17;100.00;98962.66;304982;32;1765;-75
2022/12/15 02:22:58;;;;;;;;;;;;;;;3.19;100.00;98960.03;305127;32;3092;-76
2022/12/15 02:23:27;;;;;;;;;;;;;;;3.20;100.00;98961.75;301696;32;1423;-76
2022/12/15 02:23:56;;;;;;;;;;;;;;;3.19;100.00;98955.72;301885;32;900;-76